CPX312 Details

Departure: Seattle-Tacoma International Airport (KSEA)
Arrival: Washington Dulles International Airport (KIAD)
Route: SEA NORMY J90 MWH HLN DPR MCW DBQ JOT J30 APE AIR J162 MGW GIBBZ2


Current Weather Information
KSEA 251053Z 20007KT 10SM FEW016 OVC036 12/07 A2998 RMK AO2 SLP159 T01170072
KIAD 251052Z 13007KT 10SM BKN065 19/12 A3019 RMK AO2 SLP220 T01890117